PAGINA EN CONSTRUCCIÓN

DISCULPEN POSIBLES FALLOS



Daganzo more information Daganzo


Meteosat more information blitzortung!


Radar lluvias  rain snow radar


Visita nuestra red de sitios de meteo:

Documentation for the template used

MeteoibericaRed estaciones Meteorologicas



Sin Advertencias climatologicas .En este momento tenemos Nivel Verde.    No hay Alarmas

Informes METAR proximidad

   
LEMD - Madrid/Barajas
Actualización: 21-01-2019 05:30
Despejado  
Despejado  
   Viento: NNW 14.8 km/h
Viento: NNW 14.8 km/h
Temperatura: 4°C
Térmica: 1°C
Punto de rocío: 0°C
Humedad: 75%
Baromètro: 1019 hPa
Visibilidad: More than 10 km
detalles de la nube: Despejado
LEMD 210530Z 33008KT 300V360 CAVOK 04/M00 Q1019 NOSIG
LEBL - Barcelona/El Prat
Actualización: 21-01-2019 05:30
Nubes dispersas  
Nubes dispersas  
   Viento: NNW 20.4 km/h
Viento: NNW 20.4 km/h
Temperatura: 4°C
Térmica: 0°C
Punto de rocío: 2°C
Humedad: 87%
Baromètro: 1015 hPa
Nublado: Nubes dispersas
Visibilidad: More than 10 km
detalles de la nube: Nubes dispersas 3000 ft
LEBL 210530Z 33011KT 9999 FEW030 04/02 Q1015 NOSIG
LEVC - Valencia
Actualización: 21-01-2019 05:30
Despejado  
Despejado  
   Viento: West 9.3 km/h
Viento: West 9.3 km/h
Temperatura: 3°C
Térmica: 1°C
Punto de rocío: 0°C
Humedad: 81%
Baromètro: 1017 hPa
Visibilidad: More than 10 km
detalles de la nube: Despejado
LEVC 210530Z 28005KT CAVOK 03/00 Q1017 NOSIG
LETO - Madrid/Torrejon
Actualización: 21-01-2019 05:00
Despejado  
Despejado  
   Viento: N 24.1 km/h
Viento: N 24.1 km/h
Temperatura: 4°C
Térmica: -1°C
Punto de rocío: 1°C
Humedad: 81%
Baromètro: 1019 hPa
Visibilidad: More than 10 km
detalles de la nube: Despejado
LETO 210500Z 36013KT CAVOK 04/01 Q1019 NOSIG
LEVS - Madrid/Cuatro Vientos
Actualización: 20-01-2019 19:00
NO actual
Parcialmente Nublado  
Parcialmente Nublado  
   Viento: varía 1.9 km/h
Viento: varía 1.9 km/h
Temperatura: 5°C
Punto de rocío: 2°C
Humedad: 81%
Baromètro: 1016 hPa
Nublado: Parcialmente Nublado
Visibilidad: More than 10 km
detalles de la nube: Parcialmente Nublado 5500 ft
LEVS 201900Z VRB01KT 9999 SCT055 05/02 Q1016
LEGT - Madrid/Getafe
Actualización: 21-01-2019 05:00
Despejado  
Despejado  
   Viento: varía 3.7 km/h
Viento: varía 3.7 km/h
Temperatura: 0°C
Punto de rocío: -2°C
Humedad: 87%
Baromètro: 1019 hPa
Visibilidad: More than 10 km
detalles de la nube: Despejado
LEGT 210500Z VRB02KT CAVOK 00/M02 Q1019
LEVD - Valladolid
Actualización: 20-01-2019 20:30
NO actual
Nubes dispersas  
Nubes dispersas  
   Viento: N 13 km/h
Viento: N 13 km/h
Temperatura: 0°C
Térmica: -4°C
Punto de rocío: -1°C
Humedad: 93%
Baromètro: 1018 hPa
Nublado: Nubes dispersas
Visibilidad: More than 10 km
detalles de la nube: Nubes dispersas 4500 ft
LEVD 202030Z 36007KT 9999 FEW045 00/M01 Q1018
LEZG - Zaragoza
Actualización: 21-01-2019 05:30
Nubes dispersas  
Nubes dispersas  
   Viento: West 29.6 km/h
Viento: West 29.6 km/h
Temperatura: 6°C
Térmica: 2°C
Punto de rocío: 3°C
Humedad: 81%
Baromètro: 1017 hPa
Nublado: Nubes dispersas
Visibilidad: More than 10 km
detalles de la nube: Nubes dispersas 2500 ft
LEZG 210530Z 28016KT 9999 FEW025 06/03 Q1017
LEVT - Vitoria
Actualización: 21-01-2019 05:30
lluvia, Parcialmente nublado  
lluvia, Parcialmente nublado  
   Viento: NW 7.4 km/h
Viento: NW 7.4 km/h
Temperatura: 3°C
Térmica: 1°C
Punto de rocío: 2°C
Humedad: 93%
Baromètro: 1020 hPa
Nublado: Parcialmente nublado
Visibilidad: More than 10 km
detalles de la nube: Parcialmente Nublado 1300 ft,
Parcialmente nublado 2500 ft
LEVT 210530Z 32004KT 230V030 9999 -RA SCT013 BKN025 03/02 Q1020
LELN - Leon/Virgen del Camino
Actualización: 21-01-2019 05:30
Nubes dispersas  
Nubes dispersas  
   Viento: WNW 9.3 km/h
Viento: WNW 9.3 km/h
Temperatura: 0°C
Térmica: -3°C
Punto de rocío: -1°C
Humedad: 93%
Baromètro: 1020 hPa
Nublado: Nubes dispersas
Visibilidad: More than 10 km
detalles de la nube: Nubes dispersas 3000 ft
LELN 210530Z AUTO 30005KT 280V360 9999 FEW030/// 00/M01 Q1020
LEPP - Pamplona/Noain
Actualización: 21-01-2019 05:30
Parcialmente nublado  
Parcialmente nublado  
   Viento: NW 9.3 km/h
Viento: NW 9.3 km/h
Temperatura: 3°C
Térmica: 1°C
Punto de rocío: 1°C
Humedad: 87%
Baromètro: 1018 hPa
Nublado: Parcialmente nublado
Visibilidad: More than 10 km
detalles de la nube: Nubes dispersas 1800 ft,
Parcialmente nublado 4500 ft
LEPP 210530Z 32005KT 290V350 9999 FEW018 BKN045 03/01 Q1018
LEBB - Bilbao/Sondica
Actualización: 21-01-2019 05:30
Parcialmente nublado  
Parcialmente nublado  
   Viento: NNE 14.8 km/h
Viento: NNE 14.8 km/h
Temperatura: 8°C
Térmica: 6°C
Punto de rocío: 5°C
Humedad: 82%
Baromètro: 1022 hPa
Nublado: Parcialmente nublado
Visibilidad: More than 10 km
detalles de la nube: Parcialmente Nublado 3800 ft,
Parcialmente nublado 5500 ft
LEBB 210530Z 02008KT 350V050 9999 SCT038 BKN055 08/05 Q1022 TEMPO RA

Guión original por  Saratoga-weather.org Adaptado para la plantilla por  Weerstation Leuven

Usted encontrará nuestra información del tiempo también en:

WeatherCloud

Weather Underground

Iberian Peninsula Weather Network

AWEKAS

Citizen Weather Observer Program (CWOP)